Time;durP1;ratioP1;P1;durP2;ratioP2;P2;SDS_P1;SDS_P2;PMS_P1;PMS_P2;Temp;Humidity;BMP_temperature;BMP_pressure;BME280_temperature;BME280_humidity;BME280_pressure;Samples;Min_cycle;Max_cycle;Signal;HPM_P1;HPM_P2
2024/02/04 00:00:13;;;;;;;4.70;2.70;;;;;;;6.97;80.40;97110.08;104813;1258;100008;-77
2024/02/04 00:03:00;;;;;;;5.20;2.90;;;;;;;6.96;80.21;97103.54;104863;1276;96559;-76
2024/02/04 00:05:28;;;;;;;3.90;2.80;;;;;;;6.97;80.08;97100.16;104881;1257;97497;-76
2024/02/04 00:07:56;;;;;;;4.80;3.00;;;;;;;6.99;79.98;97103.52;104846;1257;100976;-75
2024/02/04 00:10:23;;;;;;;5.10;2.70;;;;;;;7.00;80.01;97105.27;104844;1270;101398;-75
2024/02/04 00:12:51;;;;;;;4.50;2.80;;;;;;;6.99;79.90;97105.67;104729;1254;100019;-75
2024/02/04 00:15:19;;;;;;;6.40;3.60;;;;;;;7.01;79.90;97112.64;104799;1265;96574;-75
2024/02/04 00:17:46;;;;;;;3.50;2.80;;;;;;;7.00;79.90;97113.61;104863;1254;97063;-80
2024/02/04 00:20:14;;;;;;;6.50;4.30;;;;;;;7.00;79.83;97113.93;104691;1261;102243;-80
2024/02/04 00:22:42;;;;;;;5.20;3.50;;;;;;;7.00;79.91;97123.38;104840;1270;101321;-80
2024/02/04 00:25:11;;;;;;;4.70;2.80;;;;;;;7.01;79.92;97125.33;104791;1258;100047;-80
2024/02/04 00:27:39;;;;;;;5.10;2.30;;;;;;;7.00;79.91;97124.66;104904;1257;96563;-80
2024/02/04 00:30:08;;;;;;;2.90;2.20;;;;;;;7.00;79.88;97115.88;104815;1275;97135;-80
2024/02/04 00:32:35;;;;;;;4.00;2.70;;;;;;;7.01;79.82;97117.05;104844;1269;102327;-81
2024/02/04 00:35:03;;;;;;;3.60;2.50;;;;;;;7.01;79.71;97112.15;104819;1261;101254;-80
2024/02/04 00:37:31;;;;;;;4.10;2.30;;;;;;;7.02;79.63;97107.77;104796;1254;99520;-80
2024/02/04 00:39:58;;;;;;;3.40;2.60;;;;;;;7.01;79.94;97100.93;104821;1256;97002;-79
2024/02/04 00:42:26;;;;;;;2.30;2.10;;;;;;;6.99;80.19;97095.98;104825;1271;97909;-79
2024/02/04 00:44:54;;;;;;;3.50;2.40;;;;;;;6.98;80.10;97099.88;104830;1258;102486;-79
2024/02/04 00:47:22;;;;;;;2.70;1.90;;;;;;;6.95;80.31;97098.42;104761;1260;101546;-75
2024/02/04 00:49:49;;;;;;;3.70;2.40;;;;;;;6.94;80.19;97096.90;104846;1257;99899;-75
2024/02/04 00:52:17;;;;;;;4.10;2.30;;;;;;;6.91;80.51;97092.38;104832;1258;96670;-75
2024/02/04 00:54:44;;;;;;;2.10;1.90;;;;;;;6.85;80.60;97089.84;104802;1270;98427;-74
2024/02/04 00:57:12;;;;;;;2.60;2.10;;;;;;;6.83;80.66;97093.34;104674;1259;102157;-75
2024/02/04 00:59:40;;;;;;;2.90;2.10;;;;;;;6.81;80.57;97090.80;104820;1260;101189;-75
2024/02/04 01:02:07;;;;;;;2.70;2.10;;;;;;;6.80;80.69;97083.40;104854;1254;99585;-80
2024/02/04 01:04:35;;;;;;;2.70;2.20;;;;;;;6.79;80.66;97084.05;104821;1255;96473;-79
2024/02/04 01:07:03;;;;;;;4.10;2.50;;;;;;;6.78;80.63;97088.66;104838;1258;98024;-79
2024/02/04 01:09:31;;;;;;;3.20;2.50;;;;;;;6.77;80.65;97085.02;104798;1260;102331;-80
2024/02/04 01:11:58;;;;;;;4.20;2.20;;;;;;;6.76;80.80;97083.65;104831;1261;101464;-80
2024/02/04 01:14:26;;;;;;;2.80;2.10;;;;;;;6.74;81.01;97078.41;104826;1258;99729;-79
2024/02/04 01:16:54;;;;;;;3.60;2.50;;;;;;;6.72;80.83;97083.55;104839;1270;97421;-79
2024/02/04 01:19:21;;;;;;;3.50;2.10;;;;;;;6.71;80.94;97080.04;104789;1268;97104;-79
2024/02/04 01:21:49;;;;;;;5.10;2.20;;;;;;;6.69;81.04;97072.80;104793;1259;102062;-79
2024/02/04 01:24:17;;;;;;;2.40;2.00;;;;;;;6.67;81.06;97067.13;104800;1260;101591;-79
2024/02/04 01:26:44;;;;;;;3.30;2.10;;;;;;;6.66;80.98;97061.34;104801;1258;99959;-75
2024/02/04 01:29:12;;;;;;;3.10;2.20;;;;;;;6.66;81.04;97058.94;104809;1258;96524;-76
2024/02/04 01:31:40;;;;;;;2.20;1.70;;;;;;;6.64;80.99;97055.05;104827;1260;97208;-79
2024/02/04 01:34:07;;;;;;;3.80;2.50;;;;;;;6.63;81.01;97053.41;104791;1261;101847;-79
2024/02/04 01:36:36;;;;;;;3.40;2.10;;;;;;;6.61;81.00;97053.11;104833;1268;101653;-79
2024/02/04 01:39:04;;;;;;;2.70;2.20;;;;;;;6.59;81.05;97046.56;104870;1256;99548;-79
2024/02/04 01:41:32;;;;;;;3.00;2.40;;;;;;;6.57;81.26;97041.66;104812;1258;96791;-79
2024/02/04 01:44:00;;;;;;;2.80;2.50;;;;;;;6.54;81.22;97048.41;104853;1258;96553;-75
2024/02/04 01:46:28;;;;;;;4.60;2.60;;;;;;;6.52;81.35;97045.19;104761;1255;102095;-79
2024/02/04 01:48:56;;;;;;;3.20;2.30;;;;;;;6.50;81.61;97045.93;104712;1260;101032;-80
2024/02/04 01:51:25;;;;;;;3.10;2.20;;;;;;;6.48;81.44;97046.86;104827;1258;99977;-80
2024/02/04 01:53:52;;;;;;;2.50;2.30;;;;;;;6.48;81.66;97051.36;104775;1258;96820;-80
2024/02/04 01:56:21;;;;;;;2.90;2.50;;;;;;;6.46;81.72;97054.17;104857;1258;97077;-80
2024/02/04 01:58:49;;;;;;;2.70;2.30;;;;;;;6.43;81.86;97053.23;104817;1254;102397;-80
2024/02/04 02:01:18;;;;;;;2.60;2.30;;;;;;;6.41;81.98;97049.27;104923;1255;101519;-80
2024/02/04 02:03:45;;;;;;;2.40;2.00;;;;;;;6.39;82.04;97036.85;104844;1258;99986;-79
2024/02/04 02:06:14;;;;;;;2.70;2.40;;;;;;;6.38;82.22;97028.05;104815;1258;96595;-79
2024/02/04 02:08:43;;;;;;;2.40;2.10;;;;;;;6.36;82.06;97028.95;104915;1254;97231;-80
2024/02/04 02:11:26;;;;;;;3.40;2.30;;;;;;;6.35;82.36;97024.84;104903;1258;102116;-80
2024/02/04 02:14:01;;;;;;;4.30;2.30;;;;;;;6.31;82.69;97024.30;104862;1254;107965;-80
2024/02/04 02:16:33;;;;;;;2.40;2.20;;;;;;;6.29;82.67;97025.98;104682;1260;99941;-75
2024/02/04 02:19:13;;;;;;;2.40;2.10;;;;;;;6.26;83.05;97028.65;104787;1259;96677;-76
2024/02/04 02:22:09;;;;;;;2.80;2.20;;;;;;;6.23;82.93;97033.52;104862;1258;98256;-76
2024/02/04 02:24:39;;;;;;;3.40;2.20;;;;;;;6.22;83.11;97038.13;104822;1254;102301;-76
2024/02/04 02:27:07;;;;;;;2.60;2.10;;;;;;;6.21;82.92;97031.98;104719;1268;101427;-76
2024/02/04 02:29:35;;;;;;;2.40;2.20;;;;;;;6.21;82.97;97035.80;104757;1260;99923;-76
2024/02/04 02:32:03;;;;;;;3.20;2.20;;;;;;;6.18;83.14;97040.45;104800;1277;97488;-76
2024/02/04 02:34:32;;;;;;;2.30;2.10;;;;;;;6.17;82.86;97038.77;104837;1258;96999;-76
2024/02/04 02:37:37;;;;;;;5.10;2.50;;;;;;;6.19;82.74;97039.79;104872;1258;101221;-76
2024/02/04 02:40:13;;;;;;;3.10;2.30;;;;;;;6.20;82.82;97041.54;104664;1258;101044;-76
2024/02/04 02:42:44;;;;;;;2.10;1.90;;;;;;;6.20;82.73;97042.69;104710;1260;99953;-77
2024/02/04 02:45:13;;;;;;;2.90;2.50;;;;;;;6.18;82.94;97044.93;104886;1259;97459;-80
2024/02/04 02:47:41;;;;;;;3.20;2.50;;;;;;;6.16;83.19;97041.05;104732;1256;97808;-76
2024/02/04 02:50:10;;;;;;;2.80;2.00;;;;;;;6.12;83.52;97041.61;104912;1257;102647;-76
2024/02/04 02:52:37;;;;;;;2.50;2.30;;;;;;;6.09;83.50;97041.86;104741;1261;101447;-76
2024/02/04 02:55:05;;;;;;;3.00;2.70;;;;;;;6.06;83.43;97037.16;104716;1260;99830;-77
2024/02/04 02:57:33;;;;;;;3.20;2.70;;;;;;;6.05;83.65;97042.70;104923;1254;96639;-77
2024/02/04 03:00:01;;;;;;;2.80;2.30;;;;;;;6.02;83.97;97035.00;104808;1256;97284;-77
2024/02/04 03:02:29;;;;;;;4.20;2.40;;;;;;;6.00;84.30;97034.60;104716;1260;102267;-74
2024/02/04 03:04:56;;;;;;;3.20;2.30;;;;;;;5.98;84.17;97038.65;104755;1258;101346;-74
2024/02/04 03:07:24;;;;;;;4.70;2.50;;;;;;;5.96;84.26;97035.99;104752;1260;99647;-74
2024/02/04 03:09:54;;;;;;;3.50;2.30;;;;;;;5.96;84.28;97033.73;104814;1260;96657;-74
2024/02/04 03:12:22;;;;;;;3.30;2.60;;;;;;;5.95;84.08;97030.01;104856;1270;97102;-74
2024/02/04 03:14:49;;;;;;;3.30;2.60;;;;;;;5.96;84.15;97029.40;104800;1258;102029;-74
2024/02/04 03:17:20;;;;;;;2.20;2.00;;;;;;;5.96;84.00;97023.84;104819;1255;102378;-74
2024/02/04 03:19:54;;;;;;;3.70;2.90;;;;;;;5.97;83.88;97024.96;104818;1255;100124;-74
2024/02/04 03:22:22;;;;;;;2.70;2.50;;;;;;;5.98;83.84;97016.56;104773;1257;96634;-74
2024/02/04 03:24:50;;;;;;;3.10;2.60;;;;;;;5.99;84.04;97021.73;104833;1255;97059;-74
2024/02/04 03:27:19;;;;;;;3.60;2.30;;;;;;;5.99;83.91;97024.37;104870;1261;102126;-74
2024/02/04 03:29:46;;;;;;;3.60;2.60;;;;;;;5.98;84.05;97020.15;104837;1254;101357;-74
2024/02/04 03:32:14;;;;;;;2.30;2.10;;;;;;;5.99;83.96;97020.23;104683;1277;99977;-75
2024/02/04 03:34:43;;;;;;;3.80;2.20;;;;;;;6.00;83.81;97016.71;104728;1271;96587;-81
2024/02/04 03:37:10;;;;;;;2.40;2.00;;;;;;;6.01;83.79;97018.17;104851;1258;97021;-80
2024/02/04 03:39:38;;;;;;;2.80;2.20;;;;;;;6.05;84.03;97015.92;104792;1260;102370;-81
2024/02/04 03:42:06;;;;;;;2.80;2.00;;;;;;;6.09;83.80;97019.27;104869;1257;101074;-80
2024/02/04 03:44:33;;;;;;;2.70;1.80;;;;;;;6.12;83.86;97012.33;104799;1254;99963;-81
2024/02/04 03:47:03;;;;;;;2.30;1.90;;;;;;;6.15;83.88;97003.98;104825;1254;97373;-81
2024/02/04 03:49:31;;;;;;;1.90;1.80;;;;;;;6.20;83.81;97003.84;104886;1257;98038;-80
2024/02/04 03:51:58;;;;;;;2.00;1.60;;;;;;;6.24;83.81;97008.52;104790;1268;101326;-80
2024/02/04 03:54:26;;;;;;;2.60;1.90;;;;;;;6.26;83.89;97008.45;104673;1258;101192;-80
2024/02/04 03:56:54;;;;;;;3.00;1.70;;;;;;;6.28;83.69;97005.48;104808;1271;99954;-80
2024/02/04 03:59:23;;;;;;;3.10;1.90;;;;;;;6.29;83.57;97013.94;104794;1258;96794;-76
2024/02/04 04:01:53;;;;;;;4.00;2.00;;;;;;;6.29;83.59;97037.73;104860;1255;97000;-74
2024/02/04 04:04:20;;;;;;;2.50;1.50;;;;;;;6.29;83.60;97077.08;104854;1258;102293;-74
2024/02/04 04:06:48;;;;;;;1.10;0.90;;;;;;;6.24;83.44;97085.41;104831;1256;100567;-74
2024/02/04 04:09:16;;;;;;;1.70;0.90;;;;;;;6.08;83.27;97082.73;104819;1258;99979;-74
2024/02/04 04:11:44;;;;;;;2.40;0.80;;;;;;;5.91;83.23;97087.73;104794;1258;97479;-74
2024/02/04 04:14:11;;;;;;;0.80;0.70;;;;;;;5.81;83.30;97092.14;104681;1255;97117;-74
2024/02/04 04:16:39;;;;;;;1.20;0.70;;;;;;;5.73;83.30;97088.44;104861;1276;108915;-74
2024/02/04 04:19:07;;;;;;;1.50;0.80;;;;;;;5.68;83.57;97094.30;104794;1260;101624;-74
2024/02/04 04:21:35;;;;;;;2.00;1.00;;;;;;;5.61;83.55;97094.23;104769;1258;99544;-74
2024/02/04 04:24:03;;;;;;;0.80;0.50;;;;;;;5.56;83.62;97091.80;104823;1269;96555;-74
2024/02/04 04:26:31;;;;;;;1.00;0.70;;;;;;;5.53;83.77;97088.33;104840;1258;97483;-74
2024/02/04 04:28:59;;;;;;;2.30;0.60;;;;;;;5.52;83.80;97083.61;104869;1258;102055;-74
2024/02/04 04:31:27;;;;;;;0.60;0.60;;;;;;;5.50;83.73;97079.52;104837;1258;101309;-79
2024/02/04 04:33:54;;;;;;;0.80;0.70;;;;;;;5.51;83.73;97077.66;104849;1257;100167;-79
2024/02/04 04:36:22;;;;;;;1.10;0.70;;;;;;;5.53;83.81;97074.69;104814;1255;97908;-79
2024/02/04 04:38:50;;;;;;;0.70;0.60;;;;;;;5.55;83.79;97081.14;104807;1258;98001;-79
2024/02/04 04:41:18;;;;;;;1.00;0.50;;;;;;;5.56;83.79;97086.70;104915;1258;102859;-79
2024/02/04 04:43:45;;;;;;;1.10;0.80;;;;;;;5.54;83.88;97089.04;104843;1261;101313;-81
2024/02/04 04:46:13;;;;;;;0.60;0.60;;;;;;;5.52;83.81;97091.52;104829;1269;99989;-75
2024/02/04 04:48:41;;;;;;;1.20;0.50;;;;;;;5.48;83.79;97092.83;104775;1258;97885;-75
2024/02/04 04:51:10;;;;;;;0.90;0.70;;;;;;;5.48;83.80;97091.58;104786;1258;98407;-75
2024/02/04 04:53:37;;;;;;;0.60;0.50;;;;;;;5.49;83.74;97083.84;104816;1256;103505;-75
2024/02/04 04:56:06;;;;;;;1.70;0.80;;;;;;;5.52;83.80;97083.48;104786;1258;101033;-75
2024/02/04 04:58:33;;;;;;;2.00;0.80;;;;;;;5.53;83.80;97087.02;104805;1254;100029;-75
2024/02/04 05:01:01;;;;;;;1.60;0.80;;;;;;;5.56;83.91;97090.45;104781;1254;97894;-75
2024/02/04 05:03:29;;;;;;;3.50;0.70;;;;;;;5.56;83.87;97087.19;104802;1258;99825;-75
2024/02/04 05:05:57;;;;;;;1.20;0.80;;;;;;;5.56;83.90;97078.61;104828;1258;103628;-75
2024/02/04 05:08:24;;;;;;;0.50;0.50;;;;;;;5.58;83.74;97082.02;104829;1259;101044;-75
2024/02/04 05:10:52;;;;;;;0.80;0.60;;;;;;;5.59;83.79;97082.44;104782;1258;100042;-75
2024/02/04 05:13:20;;;;;;;2.30;2.10;;;;;;;5.56;83.91;97077.55;104790;1254;99257;-75
2024/02/04 05:15:47;;;;;;;1.30;1.20;;;;;;;5.56;83.89;97070.30;104864;1256;98317;-80
2024/02/04 05:18:15;;;;;;;2.50;1.60;;;;;;;5.56;83.87;97064.53;104806;1258;103660;-77
2024/02/04 05:20:43;;;;;;;4.80;3.00;;;;;;;5.57;83.94;97065.08;104764;1269;101355;-77
2024/02/04 05:23:11;;;;;;;8.90;4.30;;;;;;;5.58;84.06;97054.47;104876;1269;99933;-76
2024/02/04 05:25:38;;;;;;;7.90;4.60;;;;;;;5.57;83.96;97051.77;104783;1254;97938;-77
2024/02/04 05:28:07;;;;;;;6.20;3.70;;;;;;;5.55;83.96;97049.09;104759;1259;98435;-76
2024/02/04 05:30:35;;;;;;;7.50;4.60;;;;;;;5.56;84.04;97046.66;104856;1269;103239;-77
2024/02/04 05:33:02;;;;;;;16.30;9.60;;;;;;;5.56;84.04;97044.89;104870;1254;101116;-77
2024/02/04 05:35:30;;;;;;;23.80;9.80;;;;;;;5.56;84.17;97044.93;104739;1258;99870;-77
2024/02/04 05:37:58;;;;;;;15.20;8.40;;;;;;;5.55;84.23;97036.86;104760;1258;98016;-77
2024/02/04 05:40:25;;;;;;;8.70;4.60;;;;;;;5.55;84.20;97032.95;104800;1259;98445;-77
2024/02/04 05:42:53;;;;;;;3.70;2.40;;;;;;;5.54;84.10;97023.55;104780;1271;103763;-77
2024/02/04 05:45:21;;;;;;;1.50;1.40;;;;;;;5.56;84.07;97019.64;104816;1258;101491;-77
2024/02/04 05:47:48;;;;;;;0.80;0.70;;;;;;;5.58;84.08;97017.39;104717;1262;99878;-77
2024/02/04 05:50:16;;;;;;;2.00;1.20;;;;;;;5.60;84.14;97017.27;104747;1254;97987;-76
2024/02/04 05:52:44;;;;;;;1.60;1.10;;;;;;;5.62;84.25;97019.01;104778;1258;98422;-77
2024/02/04 05:55:12;;;;;;;1.10;0.90;;;;;;;5.62;84.18;97022.55;104769;1258;102625;-77
2024/02/04 05:57:39;;;;;;;2.10;0.90;;;;;;;5.64;84.17;97024.88;104822;1271;101425;-80
2024/02/04 06:00:10;;;;;;;1.70;1.10;;;;;;;5.65;84.23;97030.63;104780;1258;100118;-80
2024/02/04 06:02:38;;;;;;;1.70;1.10;;;;;;;5.64;84.36;97039.23;104751;1260;97886;-77
2024/02/04 06:05:05;;;;;;;3.30;1.30;;;;;;;5.65;84.63;97043.27;104813;1258;97841;-77
2024/02/04 06:07:33;;;;;;;1.30;1.20;;;;;;;5.64;84.74;97038.80;104809;1269;103232;-77
2024/02/04 06:10:03;;;;;;;2.00;1.20;;;;;;;5.63;84.84;97039.34;104801;1254;101441;-77
2024/02/04 06:12:31;;;;;;;6.90;2.60;;;;;;;5.62;84.99;97029.15;104816;1258;107066;-77
2024/02/04 06:14:59;;;;;;;3.10;2.20;;;;;;;5.61;85.69;97031.56;104886;1257;97904;-80
2024/02/04 06:17:26;;;;;;;2.90;2.10;;;;;;;5.62;85.36;97032.02;104860;1256;99152;-75
2024/02/04 06:19:54;;;;;;;1.70;1.40;;;;;;;5.68;85.60;97043.75;104855;1254;103632;-75
2024/02/04 06:22:22;;;;;;;2.70;1.50;;;;;;;5.75;85.68;97049.77;104782;1254;101268;-75
2024/02/04 06:24:50;;;;;;;1.70;1.30;;;;;;;5.77;85.41;97048.69;104861;1269;100396;-75
2024/02/04 06:27:17;;;;;;;1.50;1.20;;;;;;;5.77;85.31;97053.91;104751;1261;97950;-75
2024/02/04 06:29:45;;;;;;;2.50;1.50;;;;;;;5.76;85.33;97064.16;104811;1258;98426;-75
2024/02/04 06:32:13;;;;;;;2.20;1.30;;;;;;;5.77;85.23;97078.23;104828;1258;103587;-75
2024/02/04 06:34:41;;;;;;;3.70;1.60;;;;;;;5.74;85.09;97092.85;104734;1254;101770;-75
2024/02/04 06:37:08;;;;;;;1.90;1.50;;;;;;;5.70;84.87;97106.52;104857;1258;98672;-75
2024/02/04 06:39:36;;;;;;;2.00;1.50;;;;;;;5.68;84.87;97111.36;104817;1259;97891;-76
2024/02/04 06:42:04;;;;;;;4.90;1.10;;;;;;;5.67;84.91;97122.93;104879;1257;98412;-76
2024/02/04 06:44:32;;;;;;;1.80;1.10;;;;;;;5.63;84.82;97153.05;104861;1269;103708;-76
2024/02/04 06:47:00;;;;;;;1.30;1.20;;;;;;;5.58;84.70;97144.80;104914;1257;101262;-75
2024/02/04 06:49:27;;;;;;;1.60;1.20;;;;;;;5.53;84.36;97122.41;104841;1258;99967;-77
2024/02/04 06:51:57;;;;;;;1.50;1.10;;;;;;;5.51;83.39;97103.90;104912;1259;99362;-75
2024/02/04 06:54:25;;;;;;;2.20;1.30;;;;;;;5.55;82.91;97106.83;104873;1258;98345;-76
2024/02/04 06:56:53;;;;;;;2.00;1.30;;;;;;;5.58;82.75;97108.09;104923;1257;103650;-75
2024/02/04 06:59:21;;;;;;;1.50;1.40;;;;;;;5.59;82.06;97102.52;104825;1258;99987;-75
2024/02/04 07:01:48;;;;;;;2.20;1.50;;;;;;;5.63;81.60;97108.80;104861;1259;100033;-75
2024/02/04 07:04:16;;;;;;;1.50;1.20;;;;;;;5.67;81.53;97109.09;104742;1258;97919;-75
2024/02/04 07:06:43;;;;;;;1.30;1.10;;;;;;;5.68;81.29;97113.04;104746;1260;98437;-75
2024/02/04 07:09:11;;;;;;;4.50;1.70;;;;;;;5.69;80.67;97118.90;104806;1258;102601;-75
2024/02/04 07:11:39;;;;;;;5.40;1.90;;;;;;;5.72;80.31;97114.30;104822;1257;101175;-75
2024/02/04 07:14:08;;;;;;;2.30;1.80;;;;;;;5.75;79.91;97106.39;104861;1269;100036;-75
2024/02/04 07:16:35;;;;;;;1.90;1.30;;;;;;;5.78;79.73;97101.27;104936;1258;98035;-82
2024/02/04 07:19:04;;;;;;;2.70;1.40;;;;;;;5.81;79.23;97099.30;104818;1258;98024;-82
2024/02/04 07:21:31;;;;;;;2.10;1.60;;;;;;;5.84;78.27;97098.02;104904;1255;103489;-83
2024/02/04 07:23:59;;;;;;;3.00;1.80;;;;;;;5.87;78.12;97096.73;104914;1254;101576;-82
2024/02/04 07:26:27;;;;;;;2.80;1.80;;;;;;;5.92;78.08;97100.66;104769;1258;99652;-81
2024/02/04 07:28:54;;;;;;;2.40;1.80;;;;;;;5.95;77.74;97093.14;104746;1258;99207;-81
2024/02/04 07:31:23;;;;;;;4.00;1.80;;;;;;;5.97;76.96;97097.80;104819;1255;98502;-82
2024/02/04 07:33:50;;;;;;;2.40;1.40;;;;;;;6.01;77.01;97094.99;104828;1257;103652;-77
2024/02/04 07:36:18;;;;;;;4.30;1.60;;;;;;;6.04;77.05;97101.98;104803;1258;101417;-77
2024/02/04 07:38:46;;;;;;;2.00;1.50;;;;;;;6.07;76.95;97094.97;104678;1278;99943;-77
2024/02/04 07:41:16;;;;;;;2.80;1.90;;;;;;;6.09;76.52;97097.02;104831;1254;97920;-77
2024/02/04 07:43:44;;;;;;;3.70;2.00;;;;;;;6.11;76.35;97093.91;104731;1277;99416;-77
2024/02/04 07:46:12;;;;;;;8.00;2.40;;;;;;;6.13;75.90;97091.41;104784;1258;103832;-78
2024/02/04 07:48:40;;;;;;;5.80;2.80;;;;;;;6.13;74.99;97093.98;104779;1258;101129;-77
2024/02/04 07:51:08;;;;;;;6.80;3.40;;;;;;;6.16;74.93;97089.66;104744;1268;100043;-78
2024/02/04 07:53:37;;;;;;;5.40;3.00;;;;;;;6.17;74.80;97090.24;104779;1260;97917;-77
2024/02/04 07:56:06;;;;;;;5.50;2.30;;;;;;;6.18;75.30;97094.00;104793;1255;98331;-77
2024/02/04 07:58:34;;;;;;;2.10;1.80;;;;;;;6.19;75.38;97090.46;104865;1259;102178;-77
2024/02/04 08:01:01;;;;;;;4.50;2.60;;;;;;;6.19;75.36;97101.75;104753;1257;101804;-80
2024/02/04 08:03:29;;;;;;;5.60;3.00;;;;;;;6.18;75.16;97108.80;104755;1258;100180;-79
2024/02/04 08:05:57;;;;;;;5.60;2.50;;;;;;;6.16;74.86;97111.17;104737;1255;99215;-77
2024/02/04 08:08:24;;;;;;;5.00;2.80;;;;;;;6.13;75.03;97110.30;104851;1258;98392;-75
2024/02/04 08:10:52;;;;;;;4.90;2.50;;;;;;;6.12;75.41;97100.27;104941;1255;103676;-75
2024/02/04 08:13:20;;;;;;;24.00;7.30;;;;;;;6.10;75.73;97097.65;104749;1258;101411;-75
2024/02/04 08:15:47;;;;;;;9.60;3.60;;;;;;;6.08;75.87;97099.85;104790;1271;99817;-75
2024/02/04 08:18:15;;;;;;;7.20;2.80;;;;;;;6.05;75.91;97100.96;104784;1257;97995;-75
2024/02/04 08:20:43;;;;;;;17.30;6.10;;;;;;;6.01;75.96;97102.66;104824;1270;98355;-75
2024/02/04 08:23:11;;;;;;;11.30;4.30;;;;;;;5.98;76.05;97120.56;104783;1258;103730;-75
2024/02/04 08:25:38;;;;;;;8.40;3.60;;;;;;;5.96;76.24;97119.75;104773;1256;101021;-75
2024/02/04 08:28:06;;;;;;;25.60;9.40;;;;;;;5.93;76.10;97113.15;104859;1269;99781;-75
2024/02/04 08:30:34;;;;;;;17.90;6.80;;;;;;;5.94;76.22;97120.38;104897;1258;97900;-75
2024/02/04 08:33:01;;;;;;;15.50;6.70;;;;;;;5.92;76.25;97119.38;104945;1258;98506;-77
2024/02/04 08:35:29;;;;;;;25.00;8.80;;;;;;;5.89;76.14;97128.16;104883;1256;103497;-77
2024/02/04 08:37:57;;;;;;;9.20;4.10;;;;;;;5.86;76.36;97129.21;104880;1256;108643;-77
2024/02/04 08:40:24;;;;;;;12.50;6.10;;;;;;;5.85;76.41;97125.45;104893;1271;100054;-78
2024/02/04 08:42:52;;;;;;;7.90;3.60;;;;;;;5.84;76.36;97130.50;104862;1269;97958;-78
2024/02/04 08:45:20;;;;;;;6.10;3.30;;;;;;;5.83;76.43;97142.27;104791;1258;98331;-76
2024/02/04 08:47:47;;;;;;;5.20;2.50;;;;;;;5.81;76.47;97147.45;104731;1267;103601;-78
2024/02/04 08:50:15;;;;;;;5.10;2.30;;;;;;;5.77;76.50;97148.73;104766;1261;100431;-82
2024/02/04 08:52:43;;;;;;;6.00;2.60;;;;;;;5.71;76.70;97148.23;104739;1259;100023;-84
2024/02/04 08:55:11;;;;;;;4.30;2.30;;;;;;;5.61;76.78;97146.86;104748;1258;97933;-83
2024/02/04 08:57:38;;;;;;;5.90;2.30;;;;;;;5.57;77.12;97140.50;104771;1258;98497;-83
2024/02/04 09:00:08;;;;;;;5.80;3.00;;;;;;;5.52;77.55;97126.65;104771;1258;103723;-83
2024/02/04 09:02:36;;;;;;;6.40;2.70;;;;;;;5.44;77.95;97124.36;104802;1258;101215;-75
2024/02/04 09:05:04;;;;;;;3.90;2.10;;;;;;;5.37;78.06;97138.52;104717;1258;99694;-75
2024/02/04 09:07:32;;;;;;;3.30;1.60;;;;;;;5.37;78.30;97140.17;104712;1274;97946;-83
2024/02/04 09:10:00;;;;;;;3.60;2.10;;;;;;;5.38;78.43;97141.66;104728;1258;97914;-83
2024/02/04 09:12:27;;;;;;;3.80;2.10;;;;;;;5.37;78.40;97147.63;104807;1258;103557;-82
2024/02/04 09:14:55;;;;;;;4.30;2.00;;;;;;;5.36;78.45;97162.30;104895;1259;102566;-82
2024/02/04 09:17:23;;;;;;;5.00;2.00;;;;;;;5.33;78.43;97161.48;104781;1258;99953;-75
2024/02/04 09:19:51;;;;;;;4.40;2.80;;;;;;;5.30;78.41;97160.81;104757;1258;98047;-75
2024/02/04 09:22:19;;;;;;;3.80;2.20;;;;;;;5.26;78.48;97161.30;104779;1256;98443;-75
2024/02/04 09:24:46;;;;;;;3.20;1.70;;;;;;;5.23;78.59;97152.68;104740;1271;103501;-75
2024/02/04 09:27:14;;;;;;;2.40;1.70;;;;;;;5.19;78.77;97154.16;104904;1258;101519;-75
2024/02/04 09:29:41;;;;;;;8.60;3.60;;;;;;;5.20;79.09;97156.75;104749;1257;98932;-75
2024/02/04 09:32:09;;;;;;;7.70;4.80;;;;;;;5.23;79.25;97160.49;104813;1271;97926;-75
2024/02/04 09:34:37;;;;;;;7.60;4.20;;;;;;;5.31;79.56;97174.05;104802;1258;99076;-75
2024/02/04 09:37:05;;;;;;;7.40;4.00;;;;;;;5.37;79.50;97186.00;104771;1258;103657;-75
2024/02/04 09:39:32;;;;;;;6.10;3.40;;;;;;;5.40;79.58;97182.30;104894;1258;101387;-75
2024/02/04 09:42:00;;;;;;;7.90;3.70;;;;;;;5.39;79.68;97175.45;104858;1270;100156;-75
2024/02/04 09:44:28;;;;;;;9.40;4.10;;;;;;;5.36;79.62;97179.77;104819;1258;97833;-76
2024/02/04 09:46:59;;;;;;;9.40;4.40;;;;;;;5.40;79.80;97174.59;104729;1258;98431;-76
2024/02/04 09:49:28;;;;;;;12.80;5.80;;;;;;;5.46;79.81;97175.95;104760;1269;103541;-76
2024/02/04 09:52:00;;;;;;;18.10;8.50;;;;;;;5.50;79.87;97174.77;104768;1258;101312;-75
2024/02/04 09:54:30;;;;;;;17.60;9.20;;;;;;;5.56;80.16;97179.50;104786;1258;99874;-75
2024/02/04 09:56:59;;;;;;;12.20;7.60;;;;;;;5.66;80.40;97171.32;104820;1258;99283;-75
2024/02/04 09:59:27;;;;;;;15.60;7.80;;;;;;;5.83;80.55;97172.08;104859;1258;97942;-75
2024/02/04 10:01:56;;;;;;;8.40;5.10;;;;;;;6.02;80.56;97161.65;104880;1270;102348;-75
2024/02/04 10:04:24;;;;;;;8.20;4.20;;;;;;;6.21;80.36;97151.81;104931;1258;101350;-77
2024/02/04 10:06:52;;;;;;;5.30;3.00;;;;;;;6.39;80.11;97136.86;104902;1261;100128;-78
2024/02/04 10:09:20;;;;;;;7.30;3.30;;;;;;;6.52;79.11;97132.35;104796;1255;97971;-78
2024/02/04 10:11:47;;;;;;;5.30;2.50;;;;;;;6.56;78.59;97130.58;104758;1258;97892;-78
2024/02/04 10:14:18;;;;;;;4.80;3.30;;;;;;;6.55;78.45;97143.44;104753;1258;103483;-78
2024/02/04 10:16:46;;;;;;;6.00;4.20;;;;;;;6.47;77.71;97137.02;104789;1258;101289;-75
2024/02/04 10:19:14;;;;;;;6.80;3.60;;;;;;;6.37;77.71;97129.66;104818;1269;99908;-75
2024/02/04 10:21:41;;;;;;;7.10;3.30;;;;;;;6.28;77.61;97123.47;104811;1268;98277;-75
2024/02/04 10:24:09;;;;;;;6.30;3.40;;;;;;;6.20;77.27;97119.09;104796;1258;98442;-76
2024/02/04 10:26:37;;;;;;;7.00;3.70;;;;;;;6.19;77.66;97126.62;104861;1269;103896;-75
2024/02/04 10:29:05;;;;;;;11.50;5.10;;;;;;;6.19;77.63;97131.95;104744;1258;101115;-75
2024/02/04 10:31:34;;;;;;;13.80;5.90;;;;;;;6.20;77.63;97115.14;104773;1275;100146;-75
2024/02/04 10:34:02;;;;;;;11.70;5.20;;;;;;;6.49;77.99;97107.28;104808;1256;98825;-76
2024/02/04 10:36:31;;;;;;;6.00;3.80;;;;;;;6.70;77.75;97097.61;104796;1255;98534;-75
2024/02/04 10:38:59;;;;;;;8.30;4.00;;;;;;;6.81;77.12;97081.27;104760;1262;103076;-75
2024/02/04 10:41:31;;;;;;;6.80;2.90;;;;;;;6.89;77.10;97078.17;104966;1259;101323;-76
2024/02/04 10:44:00;;;;;;;7.60;2.70;;;;;;;6.89;76.46;97080.16;104838;1258;99961;-75
2024/02/04 10:46:31;;;;;;;5.30;2.20;;;;;;;6.83;76.59;97072.83;106709;1257;97907;-76
2024/02/04 10:49:02;;;;;;;3.90;2.60;;;;;;;6.77;76.93;97064.35;104870;1260;99250;-75
2024/02/04 10:51:32;;;;;;;10.70;3.70;;;;;;;6.73;77.18;97060.88;104895;1268;103557;-75
2024/02/04 10:54:01;;;;;;;7.00;3.60;;;;;;;6.70;77.31;97055.02;104884;1258;101119;-75
2024/02/04 10:56:42;;;;;;;9.00;3.40;;;;;;;6.64;77.27;97051.83;104817;1258;99996;-75
2024/02/04 10:59:11;;;;;;;6.10;3.70;;;;;;;6.60;77.31;97045.09;104805;1259;98345;-75
2024/02/04 11:01:41;;;;;;;7.60;4.10;;;;;;;6.56;77.43;97043.02;104812;1258;99167;-76
2024/02/04 11:04:12;;;;;;;9.40;4.60;;;;;;;6.56;77.69;97041.50;104908;1256;103631;-76
2024/02/04 11:06:42;;;;;;;8.90;4.00;;;;;;;6.58;77.70;97045.48;104820;1258;108420;-75
2024/02/04 11:09:10;;;;;;;9.40;4.70;;;;;;;6.61;77.90;97044.39;104774;1258;100082;-76
2024/02/04 11:11:39;;;;;;;14.40;8.50;;;;;;;6.66;77.98;97041.77;104788;1267;99231;-75
2024/02/04 11:14:12;;;;;;;12.70;5.70;;;;;;;6.71;78.12;97031.63;104917;1258;99026;-75
2024/02/04 11:16:46;;;;;;;10.10;4.80;;;;;;;6.79;78.15;97020.61;104890;1259;103524;-75
2024/02/04 11:19:45;;;;;;;11.00;4.70;;;;;;;6.88;77.99;97007.30;104670;1255;102217;-76
2024/02/04 11:22:33;;;;;;;12.70;4.20;;;;;;;6.95;77.53;97001.77;104656;1258;99646;-76
2024/02/04 11:25:11;;;;;;;8.10;4.00;;;;;;;7.00;77.44;96995.46;104921;1258;97926;-76
2024/02/04 11:27:38;;;;;;;12.20;5.50;;;;;;;7.03;77.22;96994.05;104689;1278;98932;-76
2024/02/04 11:30:07;;;;;;;12.80;6.00;;;;;;;7.03;76.88;96995.89;104914;1258;103455;-76
2024/02/04 11:32:36;;;;;;;7.70;4.60;;;;;;;7.02;77.01;96996.34;104779;1259;101361;-75
2024/02/04 11:35:07;;;;;;;6.70;3.50;;;;;;;7.01;77.35;96978.16;104648;1258;129133;-75